createdAt,value
2018-04-26T00:00:51.371Z,3.65
2018-04-26T00:03:18.819Z,3.33
2018-04-26T00:05:46.257Z,3.50
2018-04-26T00:08:13.699Z,3.83
2018-04-26T00:10:42.154Z,3.80
2018-04-26T00:13:09.602Z,5.43
2018-04-26T00:15:37.046Z,5.32
2018-04-26T00:18:04.499Z,5.70
2018-04-26T00:37:49.393Z,5.43
2018-04-26T00:40:16.850Z,4.40
2018-04-26T00:42:44.293Z,4.68
2018-04-26T00:45:11.750Z,4.68
2018-04-26T00:47:39.183Z,4.70
2018-04-26T00:50:06.649Z,4.05
2018-04-26T00:52:34.079Z,4.10
2018-04-26T00:55:01.531Z,4.18
2018-04-26T00:57:28.984Z,4.10
2018-04-26T00:59:56.408Z,4.07
2018-04-26T01:02:23.855Z,4.45
2018-04-26T01:04:51.329Z,3.85
2018-04-26T01:07:18.756Z,3.90
2018-04-26T01:09:46.288Z,3.78
2018-04-26T01:12:13.747Z,3.78
2018-04-26T01:14:41.200Z,3.80
2018-04-26T01:17:08.631Z,4.20
2018-04-26T01:19:36.092Z,3.78
2018-04-26T01:22:03.540Z,4.20
2018-04-26T01:24:30.992Z,4.05
2018-04-26T01:26:58.447Z,4.28
2018-04-26T01:29:25.882Z,4.03
2018-04-26T01:31:53.315Z,4.35
2018-04-26T01:34:20.765Z,4.40
2018-04-26T01:54:12.065Z,4.10
2018-04-26T01:56:39.503Z,4.85
2018-04-26T01:59:06.936Z,4.93
2018-04-26T02:01:34.398Z,4.90
2018-04-26T02:04:01.842Z,5.10
2018-04-26T02:06:29.306Z,5.03
2018-04-26T02:08:56.760Z,4.30
2018-04-26T02:11:24.213Z,3.92
2018-04-26T02:13:51.644Z,4.40
2018-04-26T02:16:19.083Z,4.55
2018-04-26T02:18:46.519Z,4.43
2018-04-26T02:21:14.059Z,4.80
2018-04-26T02:23:41.420Z,4.70
2018-04-26T02:26:08.869Z,4.68
2018-04-26T02:28:36.301Z,4.53
2018-04-26T02:31:04.513Z,4.68
2018-04-26T02:33:31.978Z,4.97
2018-04-26T02:35:59.441Z,5.00
2018-04-26T02:38:26.880Z,4.60
2018-04-26T02:40:55.110Z,5.03
2018-04-26T02:43:22.570Z,4.80
2018-04-26T02:45:50.097Z,4.35
2018-04-26T02:48:17.478Z,4.28
2018-04-26T02:50:44.921Z,4.18
2018-04-26T02:53:12.360Z,3.80
2018-04-26T02:55:40.562Z,3.75
2018-04-26T02:58:08.025Z,3.72
2018-04-26T03:00:35.485Z,3.85
2018-04-26T03:03:02.950Z,3.58
2018-04-26T03:05:30.392Z,3.45
2018-04-26T03:07:58.623Z,3.75
2018-04-26T03:10:26.076Z,3.67
2018-04-26T03:12:53.579Z,3.80
2018-04-26T03:15:21.040Z,3.78
2018-04-26T03:17:48.480Z,3.62
2018-04-26T03:20:15.918Z,4.22
2018-04-26T03:22:43.360Z,4.47
2018-04-26T03:25:10.799Z,4.20
2018-04-26T03:27:39.011Z,4.30
2018-04-26T03:30:06.460Z,4.22
2018-04-26T03:32:33.929Z,4.00
2018-04-26T03:35:01.396Z,3.60
2018-04-26T03:37:28.849Z,4.00
2018-04-26T03:39:56.305Z,3.90
2018-04-26T03:42:24.520Z,4.28
2018-04-26T03:44:51.992Z,3.97
2018-04-26T03:47:19.463Z,3.30
2018-04-26T03:49:46.899Z,3.75
2018-04-26T03:52:14.353Z,3.37
2018-04-26T03:54:41.816Z,3.42
2018-04-26T03:57:09.279Z,3.62
2018-04-26T03:59:48.759Z,4.00
2018-04-26T04:02:28.069Z,3.60
2018-04-26T04:05:07.461Z,3.17
2018-04-26T04:07:34.928Z,3.12
2018-04-26T04:10:02.377Z,3.12
2018-04-26T04:12:30.609Z,2.90
2018-04-26T04:14:58.062Z,3.17
2018-04-26T04:17:25.501Z,2.33
2018-04-26T04:19:52.946Z,2.83
2018-04-26T04:22:21.161Z,2.67
2018-04-26T04:24:48.610Z,2.77
2018-04-26T04:27:16.056Z,2.87
2018-04-26T04:29:44.268Z,3.27
2018-04-26T04:32:11.721Z,2.90
2018-04-26T04:34:39.164Z,3.10
2018-04-26T04:37:06.625Z,2.90
2018-04-26T04:39:34.082Z,3.03
2018-04-26T04:42:02.305Z,2.77
2018-04-26T04:44:29.756Z,2.50
2018-04-26T04:46:57.217Z,2.63
2018-04-26T04:49:24.668Z,2.77
2018-04-26T04:51:52.168Z,2.77
2018-04-26T04:54:19.611Z,2.97
2018-04-26T04:56:47.060Z,3.30
2018-04-26T04:59:14.510Z,3.30
2018-04-26T05:01:41.955Z,3.80
2018-04-26T05:04:10.167Z,3.63
2018-04-26T05:06:37.601Z,3.47
2018-04-26T05:09:05.081Z,3.28
2018-04-26T05:11:32.543Z,3.17
2018-04-26T05:14:00.015Z,3.10
2018-04-26T05:16:27.456Z,3.40
2018-04-26T05:18:54.917Z,3.67
2018-04-26T05:21:22.370Z,3.50
2018-04-26T05:23:50.599Z,3.57
2018-04-26T05:26:18.064Z,3.47
2018-04-26T05:28:45.500Z,3.40
2018-04-26T05:31:12.951Z,3.37
2018-04-26T05:33:40.479Z,3.10
2018-04-26T05:36:07.858Z,3.07
2018-04-26T05:38:36.064Z,2.70
2018-04-26T05:41:03.531Z,2.62
2018-04-26T05:43:30.984Z,3.20
2018-04-26T05:45:58.432Z,4.30
2018-04-26T05:48:25.878Z,2.95
2018-04-26T05:50:54.131Z,4.00
2018-04-26T05:53:21.564Z,3.87
2018-04-26T05:55:49.793Z,3.12
2018-04-26T05:58:17.227Z,3.47
2018-04-26T06:00:44.690Z,3.10
2018-04-26T06:03:12.148Z,3.07
2018-04-26T06:05:39.593Z,2.70
2018-04-26T06:08:07.045Z,2.40
2018-04-26T06:10:34.502Z,3.07
2018-04-26T06:13:01.953Z,2.50
2018-04-26T06:15:29.412Z,2.90
2018-04-26T06:17:56.869Z,2.33
2018-04-26T06:20:25.088Z,2.63
2018-04-26T06:22:53.303Z,2.30
2018-04-26T06:25:20.731Z,2.50
2018-04-26T06:27:48.192Z,2.70
2018-04-26T06:30:15.635Z,2.63
2018-04-26T06:32:43.077Z,2.00
2018-04-26T06:35:11.288Z,2.57
2018-04-26T06:37:38.744Z,2.50
2018-04-26T06:40:06.199Z,2.57
2018-04-26T06:42:34.261Z,2.93
2018-04-26T06:45:02.462Z,2.43
2018-04-26T06:47:29.932Z,2.67
2018-04-26T06:50:01.085Z,2.50
2018-04-26T06:52:29.374Z,2.50
2018-04-26T06:54:57.476Z,2.40
2018-04-26T06:57:24.932Z,2.57
2018-04-26T06:59:54.404Z,2.50
2018-04-26T07:02:22.275Z,3.37
2018-04-26T07:04:50.821Z,2.30
2018-04-26T07:07:18.281Z,2.67
2018-04-26T07:09:45.719Z,2.17
2018-04-26T07:12:13.177Z,2.80
2018-04-26T07:14:40.637Z,2.43
2018-04-26T07:17:08.100Z,2.47
2018-04-26T07:19:35.550Z,2.10
2018-04-26T07:22:03.025Z,2.37
2018-04-26T07:24:30.464Z,3.28
2018-04-26T07:26:57.942Z,2.43
2018-04-26T07:29:25.402Z,2.70
2018-04-26T07:31:52.846Z,2.60
2018-04-26T07:34:20.332Z,2.50
2018-04-26T07:36:47.800Z,2.45
2018-04-26T07:39:15.247Z,2.20
2018-04-26T07:41:42.694Z,2.87
2018-04-26T07:44:10.161Z,2.37
2018-04-26T07:46:37.624Z,2.53
2018-04-26T07:49:05.107Z,2.70
2018-04-26T07:51:32.577Z,2.37
2018-04-26T07:54:00.032Z,2.10
2018-04-26T07:56:27.483Z,2.33
2018-04-26T07:58:54.942Z,1.95
2018-04-26T08:01:22.393Z,2.07
2018-04-26T08:03:49.846Z,2.23
2018-04-26T08:06:17.317Z,2.13
2018-04-26T08:08:44.771Z,2.13
2018-04-26T08:11:12.228Z,1.87
2018-04-26T08:13:39.689Z,2.50
2018-04-26T08:16:07.269Z,2.23
2018-04-26T08:18:34.713Z,2.10
2018-04-26T08:21:02.951Z,2.40
2018-04-26T08:23:30.383Z,2.30
2018-04-26T08:25:57.859Z,2.40
2018-04-26T08:28:25.327Z,2.00
2018-04-26T08:30:52.778Z,1.80
2018-04-26T08:33:20.233Z,2.50
2018-04-26T08:35:47.671Z,1.50
2018-04-26T08:38:15.145Z,2.10
2018-04-26T08:40:42.637Z,2.30
2018-04-26T08:43:10.074Z,2.97
2018-04-26T08:45:37.620Z,5.63
2018-04-26T08:48:04.997Z,1.50
2018-04-26T08:50:32.443Z,1.60
2018-04-26T08:53:00.564Z,1.63
2018-04-26T08:55:28.020Z,1.93
2018-04-26T08:57:55.459Z,1.97
2018-04-26T09:00:22.935Z,2.13
2018-04-26T09:02:50.422Z,4.85
2018-04-26T09:05:17.880Z,1.73
2018-04-26T09:07:45.324Z,3.27
2018-04-26T09:10:12.775Z,1.75
2018-04-26T09:12:40.254Z,2.30
2018-04-26T09:15:07.693Z,2.43
2018-04-26T09:17:35.137Z,1.97
2018-04-26T09:20:03.364Z,12.13
2018-04-26T09:22:30.817Z,1.98
2018-04-26T09:24:58.276Z,1.70
2018-04-26T09:27:25.731Z,1.65
2018-04-26T09:29:53.179Z,1.77
2018-04-26T09:32:20.657Z,1.73
2018-04-26T09:34:48.138Z,2.30
2018-04-26T09:37:15.591Z,2.35
2018-04-26T09:39:43.044Z,1.33
2018-04-26T09:42:10.498Z,1.27
2018-04-26T09:44:37.941Z,1.50
2018-04-26T09:47:05.396Z,1.27
2018-04-26T09:49:33.615Z,1.50
2018-04-26T09:52:01.068Z,1.85
2018-04-26T09:54:28.532Z,1.25
2018-04-26T09:56:56.005Z,1.02
2018-04-26T09:59:23.478Z,1.10
2018-04-26T10:02:05.832Z,1.60
2018-04-26T10:04:39.740Z,1.33
2018-04-26T10:07:08.793Z,1.77
2018-04-26T10:09:36.236Z,1.48
2018-04-26T10:12:03.697Z,1.58
2018-04-26T10:14:31.248Z,1.85
2018-04-26T10:16:58.793Z,1.20
2018-04-26T10:19:27.890Z,1.87
2018-04-26T10:21:55.378Z,1.30
2018-04-26T10:24:22.880Z,1.45
2018-04-26T10:26:50.382Z,1.67
2018-04-26T10:29:18.660Z,1.55
2018-04-26T10:31:47.389Z,1.55
2018-04-26T10:34:14.838Z,1.25
2018-04-26T10:36:42.402Z,1.48
2018-04-26T10:39:09.863Z,1.87
2018-04-26T10:41:37.309Z,1.52
2018-04-26T10:44:04.744Z,1.90
2018-04-26T10:46:32.184Z,1.98
2018-04-26T10:48:59.705Z,1.80
2018-04-26T10:51:27.154Z,1.60
2018-04-26T10:53:55.392Z,1.55
2018-04-26T10:56:22.840Z,1.67
2018-04-26T10:58:50.308Z,1.77
2018-04-26T11:01:17.762Z,1.70
2018-04-26T11:03:45.239Z,1.52
2018-04-26T11:06:12.692Z,1.80
2018-04-26T11:08:40.133Z,1.60
2018-04-26T11:11:07.589Z,1.70
2018-04-26T11:13:35.042Z,1.60
2018-04-26T11:16:02.494Z,2.00
2018-04-26T11:18:29.968Z,1.48
2018-04-26T11:20:57.426Z,1.08
2018-04-26T11:23:24.908Z,1.25
2018-04-26T11:25:52.369Z,4.87
2018-04-26T11:28:19.829Z,2.75
2018-04-26T11:30:47.293Z,1.67
2018-04-26T11:33:14.744Z,1.48
2018-04-26T11:35:42.201Z,1.60
2018-04-26T11:38:09.655Z,1.83
2018-04-26T11:40:37.864Z,3.20
2018-04-26T11:43:05.319Z,1.52
2018-04-26T11:45:32.770Z,2.00
2018-04-26T11:48:00.218Z,2.05
2018-04-26T11:50:28.428Z,2.00
2018-04-26T11:52:55.904Z,1.70
2018-04-26T11:55:23.354Z,1.95
2018-04-26T11:57:50.864Z,1.55
2018-04-26T12:00:18.299Z,1.45
2018-04-26T12:02:45.769Z,1.65
2018-04-26T12:05:13.192Z,1.92
2018-04-26T12:07:40.708Z,2.10
2018-04-26T12:10:08.108Z,2.20
2018-04-26T12:12:35.574Z,1.17
2018-04-26T12:15:03.028Z,1.58
2018-04-26T12:17:31.237Z,1.55
2018-04-26T12:19:58.685Z,1.23
2018-04-26T12:22:26.144Z,1.40
2018-04-26T12:24:53.607Z,1.83
2018-04-26T12:27:21.049Z,1.50
2018-04-26T12:29:49.256Z,2.92
2018-04-26T12:32:16.705Z,1.70
2018-04-26T12:34:44.183Z,1.52
2018-04-26T12:37:12.384Z,1.40
2018-04-26T12:39:39.844Z,1.37
2018-04-26T12:42:07.294Z,1.50
2018-04-26T12:44:35.499Z,1.92
2018-04-26T12:47:02.972Z,1.52
2018-04-26T12:49:30.436Z,1.35
2018-04-26T12:51:57.908Z,1.02
2018-04-26T12:54:25.357Z,1.30
2018-04-26T12:56:52.805Z,1.23
2018-04-26T12:59:20.279Z,1.17
2018-04-26T13:01:47.730Z,1.75
2018-04-26T13:04:15.167Z,1.73
2018-04-26T13:06:42.616Z,1.58
2018-04-26T13:09:10.087Z,1.90
2018-04-26T13:11:37.522Z,1.62
2018-04-26T13:14:05.738Z,1.40
2018-04-26T13:16:33.191Z,1.60
2018-04-26T13:19:00.614Z,1.87
2018-04-26T13:21:28.844Z,1.50
2018-04-26T13:23:56.286Z,1.42
2018-04-26T13:26:23.728Z,4.15
2018-04-26T13:28:51.929Z,1.75
2018-04-26T13:31:19.507Z,1.60
2018-04-26T13:33:46.932Z,1.67
2018-04-26T13:36:15.217Z,1.60
2018-04-26T13:38:42.597Z,1.20
2018-04-26T13:41:10.072Z,1.77
2018-04-26T13:43:37.524Z,1.60
2018-04-26T13:46:05.010Z,2.10
2018-04-26T13:48:32.422Z,1.83
2018-04-26T13:51:00.653Z,1.77
2018-04-26T13:53:28.100Z,1.65
2018-04-26T13:55:55.572Z,1.95
2018-04-26T13:58:23.028Z,1.27
2018-04-26T14:00:50.486Z,1.42
2018-04-26T14:03:17.964Z,1.42
2018-04-26T14:05:45.414Z,2.17
2018-04-26T14:08:12.868Z,1.85
2018-04-26T14:10:40.342Z,1.75
2018-04-26T14:13:07.788Z,1.60
2018-04-26T14:15:35.246Z,1.45
2018-04-26T14:18:02.714Z,1.40
2018-04-26T14:20:30.922Z,1.10
2018-04-26T14:22:58.410Z,1.33
2018-04-26T14:25:25.840Z,1.25
2018-04-26T14:27:53.795Z,1.17
2018-04-26T14:30:21.246Z,1.60
2018-04-26T14:32:49.481Z,1.02
2018-04-26T14:35:16.911Z,1.20
2018-04-26T14:37:44.357Z,1.90
2018-04-26T14:40:11.790Z,1.10
2018-04-26T14:42:40.014Z,1.35
2018-04-26T14:45:07.450Z,1.48
2018-04-26T14:47:34.892Z,1.50
2018-04-26T14:50:03.104Z,1.17
2018-04-26T14:52:30.567Z,1.15
2018-04-26T14:54:57.996Z,1.48
2018-04-26T14:57:26.216Z,1.55
2018-04-26T14:59:53.655Z,1.30
2018-04-26T15:02:21.131Z,1.27
2018-04-26T15:04:48.601Z,1.50
2018-04-26T15:07:16.071Z,1.62
2018-04-26T15:09:43.520Z,1.67
2018-04-26T15:12:10.984Z,1.30
2018-04-26T15:14:38.426Z,1.73
2018-04-26T15:17:05.878Z,1.52
2018-04-26T15:19:34.096Z,1.55
2018-04-26T15:22:02.329Z,1.37
2018-04-26T15:24:30.604Z,1.33
2018-04-26T15:26:58.075Z,1.08
2018-04-26T15:29:31.318Z,1.30
2018-04-26T15:32:00.362Z,1.30
2018-04-26T15:34:28.688Z,1.27
2018-04-26T15:36:56.144Z,1.75
2018-04-26T15:39:23.698Z,1.65
2018-04-26T15:41:51.145Z,1.65
2018-04-26T15:44:19.433Z,1.80
2018-04-26T15:46:46.820Z,1.60
2018-04-26T15:49:14.316Z,1.40
2018-04-26T15:51:41.776Z,1.25
2018-04-26T15:54:21.138Z,1.35
2018-04-26T15:57:01.328Z,1.60
2018-04-26T15:59:40.740Z,1.73
2018-04-26T16:05:42.818Z,1.30
2018-04-26T16:08:27.761Z,1.50
2018-04-26T16:11:12.914Z,1.65
2018-04-26T16:13:58.015Z,1.30
2018-04-26T16:16:43.981Z,1.45
2018-04-26T16:19:32.982Z,1.67
2018-04-26T16:22:17.885Z,1.52
2018-04-26T16:24:57.984Z,1.62
2018-04-26T16:27:43.390Z,1.40
2018-04-26T16:30:23.292Z,0.95
2018-04-26T16:33:05.422Z,1.10
2018-04-26T16:35:44.708Z,1.33
2018-04-26T16:38:24.014Z,1.30
2018-04-26T16:40:52.228Z,4.28
2018-04-26T16:43:19.691Z,3.17
2018-04-26T16:45:47.153Z,1.60
2018-04-26T16:48:14.602Z,1.70
2018-04-26T16:50:42.055Z,1.40
2018-04-26T16:53:09.502Z,1.95
2018-04-26T16:55:37.732Z,1.60
2018-04-26T16:58:05.171Z,1.62
2018-04-26T17:00:32.624Z,1.50
2018-04-26T17:03:00.066Z,1.42
2018-04-26T17:05:28.297Z,1.55
2018-04-26T17:07:55.744Z,1.75
2018-04-26T17:10:23.208Z,1.50
2018-04-26T17:12:50.663Z,1.40
2018-04-26T17:15:18.175Z,1.37
2018-04-26T17:17:45.596Z,1.42
2018-04-26T17:20:13.834Z,1.60
2018-04-26T17:22:42.051Z,1.30
2018-04-26T17:25:10.355Z,1.45
2018-04-26T17:27:37.816Z,1.80
2018-04-26T17:30:05.265Z,1.83
2018-04-26T17:32:32.699Z,1.60
2018-04-26T17:35:00.151Z,1.85
2018-04-26T17:37:28.404Z,1.30
2018-04-26T17:39:55.858Z,1.80
2018-04-26T17:42:23.363Z,1.85
2018-04-26T17:44:50.744Z,1.95
2018-04-26T17:47:18.198Z,1.55
2018-04-26T17:49:45.648Z,1.80
2018-04-26T17:52:13.103Z,1.90
2018-04-26T17:54:41.313Z,2.17
2018-04-26T17:57:09.534Z,1.58
2018-04-26T17:59:37.000Z,1.65
2018-04-26T18:02:04.437Z,1.62
2018-04-26T18:04:31.935Z,1.75
2018-04-26T18:07:00.154Z,2.05
2018-04-26T18:09:27.696Z,1.77
2018-04-26T18:11:55.082Z,1.87
2018-04-26T18:14:22.521Z,2.00
2018-04-26T18:16:50.008Z,1.45
2018-04-26T18:19:17.449Z,1.87
2018-04-26T18:21:44.887Z,1.80
2018-04-26T18:24:13.087Z,2.10
2018-04-26T18:26:40.523Z,2.00
2018-04-26T18:29:08.744Z,1.80
2018-04-26T18:31:36.216Z,1.95
2018-04-26T18:34:03.653Z,1.62
2018-04-26T18:36:31.109Z,1.90
2018-04-26T18:38:59.452Z,1.77
2018-04-26T18:41:26.908Z,1.67
2018-04-26T18:43:54.354Z,1.60
2018-04-26T18:46:21.801Z,1.73
2018-04-26T18:48:49.263Z,1.80
2018-04-26T18:51:16.729Z,1.70
2018-04-26T18:53:44.144Z,1.45
2018-04-26T18:56:12.361Z,1.67
2018-04-26T18:58:39.812Z,1.67
2018-04-26T19:01:07.256Z,1.65
2018-04-26T19:03:35.455Z,1.87
2018-04-26T19:06:02.922Z,1.70
2018-04-26T19:08:30.352Z,1.48
2018-04-26T19:10:57.807Z,2.20
2018-04-26T19:13:25.244Z,2.08
2018-04-26T19:15:52.680Z,2.10
2018-04-26T19:18:20.144Z,2.53
2018-04-26T19:20:47.592Z,2.55
2018-04-26T19:23:15.042Z,1.90
2018-04-26T19:25:43.249Z,2.05
2018-04-26T19:28:10.707Z,1.70
2018-04-26T19:30:38.148Z,2.10
2018-04-26T19:33:06.378Z,2.00
2018-04-26T19:35:33.820Z,2.12
2018-04-26T19:38:01.298Z,2.47
2018-04-26T19:40:29.246Z,4.10
2018-04-26T19:42:57.011Z,3.12
2018-04-26T19:45:24.465Z,2.85
2018-04-26T19:47:52.702Z,2.83
2018-04-26T19:50:20.152Z,2.72
2018-04-26T19:52:47.614Z,2.72
2018-04-26T19:55:15.096Z,3.50
2018-04-26T19:57:42.620Z,4.00
2018-04-26T20:00:10.027Z,3.78
2018-04-26T20:02:37.484Z,4.47
2018-04-26T20:05:04.953Z,3.72
2018-04-26T20:07:32.414Z,4.18
2018-04-26T20:09:59.875Z,3.70
2018-04-26T20:12:29.504Z,3.45
2018-04-26T20:14:57.818Z,3.12
2018-04-26T20:17:25.268Z,2.93
2018-04-26T20:19:52.718Z,3.47
2018-04-26T20:22:20.927Z,2.87
2018-04-26T20:24:48.390Z,3.20
2018-04-26T20:27:15.851Z,3.55
2018-04-26T20:29:43.300Z,3.40
2018-04-26T20:32:10.740Z,3.50
2018-04-26T20:34:38.957Z,4.27
2018-04-26T20:37:06.394Z,5.17
2018-04-26T20:39:33.852Z,4.33
2018-04-26T20:42:02.109Z,3.83
2018-04-26T20:44:41.298Z,3.90
2018-04-26T20:47:08.755Z,3.03
2018-04-26T20:49:36.204Z,2.33
2018-04-26T20:52:03.677Z,2.50
2018-04-26T20:54:31.120Z,2.40
2018-04-26T20:56:58.578Z,2.30
2018-04-26T20:59:26.805Z,2.50
2018-04-26T21:01:54.232Z,2.57
2018-04-26T21:04:21.728Z,2.10
2018-04-26T21:06:49.941Z,2.60
2018-04-26T21:09:17.396Z,2.67
2018-04-26T21:11:44.846Z,2.23
2018-04-26T21:14:13.141Z,2.50
2018-04-26T21:16:41.264Z,2.70
2018-04-26T21:19:08.706Z,2.30
2018-04-26T21:21:36.972Z,2.60
2018-04-26T21:24:05.184Z,2.70
2018-04-26T21:26:33.401Z,2.80
2018-04-26T21:29:00.834Z,2.97
2018-04-26T21:31:28.326Z,2.87
2018-04-26T21:33:55.805Z,2.83
2018-04-26T21:36:23.268Z,3.17
2018-04-26T21:38:50.715Z,3.00
2018-04-26T21:41:18.934Z,3.00
2018-04-26T21:43:47.152Z,2.93
2018-04-26T21:46:14.593Z,2.67
2018-04-26T21:48:42.042Z,3.00
2018-04-26T21:51:16.024Z,2.47
2018-04-26T21:53:49.207Z,2.53
2018-04-26T21:56:22.418Z,2.90
2018-04-26T21:58:55.594Z,2.47
2018-04-26T22:01:28.816Z,2.87
2018-04-26T22:03:58.799Z,2.83
2018-04-26T22:06:26.257Z,3.10
2018-04-26T22:08:53.685Z,2.53
2018-04-26T22:11:21.143Z,2.87
2018-04-26T22:13:48.588Z,3.13
2018-04-26T22:16:16.843Z,3.00
2018-04-26T22:18:44.932Z,3.13
2018-04-26T22:21:12.471Z,2.47
2018-04-26T22:23:39.924Z,2.63
2018-04-26T22:26:07.412Z,3.13
2018-04-26T22:28:34.863Z,2.97
2018-04-26T22:31:02.300Z,2.70
2018-04-26T22:33:29.758Z,2.70
2018-04-26T22:35:57.208Z,2.67
2018-04-26T22:38:24.664Z,2.73
2018-04-26T22:40:52.120Z,3.27
2018-04-26T22:43:19.584Z,2.23
2018-04-26T22:45:47.043Z,2.70
2018-04-26T22:48:14.480Z,2.80
2018-04-26T22:50:41.914Z,3.23
2018-04-26T22:53:10.144Z,2.87
2018-04-26T22:55:37.627Z,3.40
2018-04-26T22:58:05.063Z,3.03
2018-04-26T23:00:33.255Z,2.83
2018-04-26T23:03:00.708Z,3.03
2018-04-26T23:05:28.941Z,3.17
2018-04-26T23:07:56.368Z,3.10
2018-04-26T23:10:23.805Z,2.90
2018-04-26T23:12:52.045Z,3.20
2018-04-26T23:15:19.576Z,2.77
2018-04-26T23:17:47.025Z,2.83
2018-04-26T23:20:14.499Z,3.30
2018-04-26T23:22:41.972Z,3.00
2018-04-26T23:25:09.415Z,3.07
2018-04-26T23:27:36.859Z,3.37
2018-04-26T23:30:05.064Z,2.90
2018-04-26T23:32:32.514Z,2.87
2018-04-26T23:34:59.962Z,3.00
2018-04-26T23:37:28.173Z,3.43
2018-04-26T23:39:55.607Z,3.40
2018-04-26T23:42:23.064Z,3.37
2018-04-26T23:44:50.512Z,3.47
2018-04-26T23:47:17.960Z,3.40
2018-04-26T23:49:45.414Z,3.30
2018-04-26T23:52:12.861Z,3.43
2018-04-26T23:54:40.288Z,2.83
2018-04-26T23:57:07.744Z,2.93
2018-04-26T23:59:35.187Z,3.03
